sensor_id;sensor_type;location;lat;lon;timestamp;pressure;altitude;pressure_sealevel;temperature;humidity
10824;BME280;39116;59.332;18.034;2023-03-21T00:00:07;100682.16;;;0.71;100.00
10824;BME280;39116;59.332;18.034;2023-03-21T00:02:30;100686.50;;;0.72;100.00
10824;BME280;39116;59.332;18.034;2023-03-21T00:04:53;100686.19;;;0.66;100.00
10824;BME280;39116;59.332;18.034;2023-03-21T00:07:16;100690.66;;;0.70;100.00
10824;BME280;39116;59.332;18.034;2023-03-21T00:09:38;100691.00;;;0.96;100.00
10824;BME280;39116;59.332;18.034;2023-03-21T00:12:00;100681.69;;;0.98;100.00
10824;BME280;39116;59.332;18.034;2023-03-21T00:14:22;100687.69;;;0.99;100.00
10824;BME280;39116;59.332;18.034;2023-03-21T00:16:45;100686.56;;;0.56;100.00
10824;BME280;39116;59.332;18.034;2023-03-21T00:19:10;100688.81;;;0.86;100.00
10824;BME280;39116;59.332;18.034;2023-03-21T00:21:33;100683.03;;;0.90;100.00
10824;BME280;39116;59.332;18.034;2023-03-21T00:23:59;100667.41;;;1.03;100.00
10824;BME280;39116;59.332;18.034;2023-03-21T00:26:21;100657.41;;;0.90;100.00
10824;BME280;39116;59.332;18.034;2023-03-21T00:28:43;100680.31;;;0.87;100.00
10824;BME280;39116;59.332;18.034;2023-03-21T00:31:06;100663.16;;;0.86;100.00
10824;BME280;39116;59.332;18.034;2023-03-21T00:33:28;100668.00;;;0.98;100.00
10824;BME280;39116;59.332;18.034;2023-03-21T00:35:50;100665.41;;;0.60;100.00
10824;BME280;39116;59.332;18.034;2023-03-21T00:38:13;100649.78;;;0.36;100.00
10824;BME280;39116;59.332;18.034;2023-03-21T00:40:37;100678.44;;;0.83;100.00
10824;BME280;39116;59.332;18.034;2023-03-21T00:42:58;100661.81;;;0.74;100.00
10824;BME280;39116;59.332;18.034;2023-03-21T00:45:20;100665.25;;;0.75;100.00
10824;BME280;39116;59.332;18.034;2023-03-21T00:47:42;100663.59;;;0.95;100.00
10824;BME280;39116;59.332;18.034;2023-03-21T00:50:05;100659.28;;;0.94;100.00
10824;BME280;39116;59.332;18.034;2023-03-21T00:52:27;100657.06;;;0.64;100.00
10824;BME280;39116;59.332;18.034;2023-03-21T00:54:49;100668.81;;;0.79;100.00
10824;BME280;39116;59.332;18.034;2023-03-21T00:57:12;100671.53;;;0.82;100.00
10824;BME280;39116;59.332;18.034;2023-03-21T00:59:34;100660.72;;;0.69;100.00
10824;BME280;39116;59.332;18.034;2023-03-21T01:01:56;100674.34;;;0.68;100.00
10824;BME280;39116;59.332;18.034;2023-03-21T01:04:20;100677.72;;;0.67;100.00
10824;BME280;39116;59.332;18.034;2023-03-21T01:06:46;100670.47;;;0.96;100.00
10824;BME280;39116;59.332;18.034;2023-03-21T01:09:12;100669.09;;;1.22;100.00
10824;BME280;39116;59.332;18.034;2023-03-21T01:11:35;100672.56;;;0.85;100.00
10824;BME280;39116;59.332;18.034;2023-03-21T01:13:58;100681.88;;;0.65;100.00
10824;BME280;39116;59.332;18.034;2023-03-21T01:16:20;100659.00;;;0.32;100.00
10824;BME280;39116;59.332;18.034;2023-03-21T01:18:42;100687.38;;;0.55;100.00
10824;BME280;39116;59.332;18.034;2023-03-21T01:21:06;100694.91;;;0.52;100.00
10824;BME280;39116;59.332;18.034;2023-03-21T01:23:29;100682.97;;;0.88;100.00
10824;BME280;39116;59.332;18.034;2023-03-21T01:25:52;100676.47;;;0.97;100.00
10824;BME280;39116;59.332;18.034;2023-03-21T01:28:15;100689.56;;;0.83;100.00
10824;BME280;39116;59.332;18.034;2023-03-21T01:30:38;100660.81;;;0.17;100.00
10824;BME280;39116;59.332;18.034;2023-03-21T01:33:05;100701.13;;;0.57;100.00
10824;BME280;39116;59.332;18.034;2023-03-21T01:35:27;100702.22;;;0.26;100.00
10824;BME280;39116;59.332;18.034;2023-03-21T01:37:49;100705.16;;;0.52;100.00
10824;BME280;39116;59.332;18.034;2023-03-21T01:40:15;100695.72;;;0.51;100.00
10824;BME280;39116;59.332;18.034;2023-03-21T01:42:38;100697.25;;;0.47;100.00
10824;BME280;39116;59.332;18.034;2023-03-21T01:45:02;100697.19;;;0.64;100.00
10824;BME280;39116;59.332;18.034;2023-03-21T01:47:26;100696.75;;;0.36;100.00
10824;BME280;39116;59.332;18.034;2023-03-21T01:49:50;100698.03;;;0.64;100.00
10824;BME280;39116;59.332;18.034;2023-03-21T01:52:14;100701.63;;;0.86;100.00
10824;BME280;39116;59.332;18.034;2023-03-21T01:54:38;100701.13;;;0.57;100.00
10824;BME280;39116;59.332;18.034;2023-03-21T01:57:06;100701.28;;;0.60;100.00
10824;BME280;39116;59.332;18.034;2023-03-21T01:59:33;100699.38;;;0.56;100.00
10824;BME280;39116;59.332;18.034;2023-03-21T02:02:00;100697.75;;;0.76;100.00
10824;BME280;39116;59.332;18.034;2023-03-21T02:04:27;100703.81;;;0.78;100.00
10824;BME280;39116;59.332;18.034;2023-03-21T02:06:53;100696.31;;;0.63;100.00
10824;BME280;39116;59.332;18.034;2023-03-21T02:09:20;100649.47;;;0.48;100.00
10824;BME280;39116;59.332;18.034;2023-03-21T02:11:45;100633.94;;;0.45;100.00
10824;BME280;39116;59.332;18.034;2023-03-21T02:14:11;100698.63;;;0.76;100.00
10824;BME280;39116;59.332;18.034;2023-03-21T02:16:47;100701.94;;;0.74;100.00
10824;BME280;39116;59.332;18.034;2023-03-21T02:19:24;100702.38;;;0.47;100.00
10824;BME280;39116;59.332;18.034;2023-03-21T02:27:49;100712.09;;;0.18;100.00
10824;BME280;39116;59.332;18.034;2023-03-21T02:36:13;100708.81;;;0.75;100.00
10824;BME280;39116;59.332;18.034;2023-03-21T02:38:40;100713.41;;;0.64;100.00
10824;BME280;39116;59.332;18.034;2023-03-21T02:41:15;100703.69;;;0.57;100.00
10824;BME280;39116;59.332;18.034;2023-03-21T02:43:42;100710.56;;;0.22;100.00
10824;BME280;39116;59.332;18.034;2023-03-21T02:46:09;100679.16;;;0.26;100.00
10824;BME280;39116;59.332;18.034;2023-03-21T02:48:36;100711.41;;;0.23;100.00
10824;BME280;39116;59.332;18.034;2023-03-21T02:51:01;100715.47;;;0.35;100.00
10824;BME280;39116;59.332;18.034;2023-03-21T02:53:29;100711.81;;;0.66;100.00
10824;BME280;39116;59.332;18.034;2023-03-21T02:55:54;100711.44;;;0.41;100.00
10824;BME280;39116;59.332;18.034;2023-03-21T02:58:19;100716.66;;;0.60;100.00
10824;BME280;39116;59.332;18.034;2023-03-21T03:00:44;100711.97;;;0.51;100.00
10824;BME280;39116;59.332;18.034;2023-03-21T03:03:06;100719.56;;;0.32;100.00
10824;BME280;39116;59.332;18.034;2023-03-21T03:05:30;100703.88;;;0.08;100.00
10824;BME280;39116;59.332;18.034;2023-03-21T03:08:04;100723.44;;;0.24;100.00
10824;BME280;39116;59.332;18.034;2023-03-21T03:10:43;100727.75;;;0.43;100.00
10824;BME280;39116;59.332;18.034;2023-03-21T03:13:17;100728.00;;;0.83;100.00
10824;BME280;39116;59.332;18.034;2023-03-21T03:15:52;100714.06;;;0.96;100.00
10824;BME280;39116;59.332;18.034;2023-03-21T03:18:21;100715.84;;;0.79;100.00
10824;BME280;39116;59.332;18.034;2023-03-21T03:20:52;100704.78;;;0.62;100.00
10824;BME280;39116;59.332;18.034;2023-03-21T03:23:25;100730.25;;;-0.92;100.00
10824;BME280;39116;59.332;18.034;2023-03-21T03:25:53;100738.03;;;-0.74;100.00
10824;BME280;39116;59.332;18.034;2023-03-21T03:28:21;100739.06;;;-0.70;100.00
10824;BME280;39116;59.332;18.034;2023-03-21T03:30:46;100741.06;;;-0.81;100.00
10824;BME280;39116;59.332;18.034;2023-03-21T03:33:09;100743.03;;;-0.92;100.00
10824;BME280;39116;59.332;18.034;2023-03-21T03:35:31;100752.47;;;-0.91;100.00
10824;BME280;39116;59.332;18.034;2023-03-21T03:37:55;100761.28;;;-1.01;100.00
10824;BME280;39116;59.332;18.034;2023-03-21T03:40:23;100765.06;;;-0.94;100.00
10824;BME280;39116;59.332;18.034;2023-03-21T03:42:49;100756.19;;;-1.01;100.00
10824;BME280;39116;59.332;18.034;2023-03-21T03:45:13;100768.22;;;-0.83;100.00
10824;BME280;39116;59.332;18.034;2023-03-21T03:47:38;100747.47;;;-1.04;100.00
10824;BME280;39116;59.332;18.034;2023-03-21T03:50:06;100764.50;;;-0.73;100.00
10824;BME280;39116;59.332;18.034;2023-03-21T03:52:32;100769.63;;;-0.73;100.00
10824;BME280;39116;59.332;18.034;2023-03-21T03:54:57;100771.78;;;-0.96;100.00
10824;BME280;39116;59.332;18.034;2023-03-21T03:57:19;100774.66;;;-0.90;100.00
10824;BME280;39116;59.332;18.034;2023-03-21T03:59:43;100770.00;;;-0.82;100.00
10824;BME280;39116;59.332;18.034;2023-03-21T04:02:07;100772.28;;;-0.87;100.00
10824;BME280;39116;59.332;18.034;2023-03-21T04:04:29;100776.56;;;-1.17;100.00
10824;BME280;39116;59.332;18.034;2023-03-21T04:06:51;100778.69;;;-1.10;100.00
10824;BME280;39116;59.332;18.034;2023-03-21T04:09:13;100769.19;;;-1.12;100.00
10824;BME280;39116;59.332;18.034;2023-03-21T04:11:36;100764.03;;;-0.98;100.00
10824;BME280;39116;59.332;18.034;2023-03-21T04:13:58;100775.56;;;-0.89;100.00
10824;BME280;39116;59.332;18.034;2023-03-21T04:16:20;100782.78;;;-0.97;100.00
10824;BME280;39116;59.332;18.034;2023-03-21T04:18:44;100777.34;;;-0.72;100.00
10824;BME280;39116;59.332;18.034;2023-03-21T04:21:08;100763.84;;;-0.86;100.00
10824;BME280;39116;59.332;18.034;2023-03-21T04:23:30;100767.53;;;-0.81;100.00
10824;BME280;39116;59.332;18.034;2023-03-21T04:25:52;100769.50;;;-0.91;100.00
10824;BME280;39116;59.332;18.034;2023-03-21T04:28:14;100773.56;;;-0.95;100.00
10824;BME280;39116;59.332;18.034;2023-03-21T04:30:36;100780.91;;;-0.85;100.00
10824;BME280;39116;59.332;18.034;2023-03-21T04:32:58;100781.25;;;-0.79;100.00
10824;BME280;39116;59.332;18.034;2023-03-21T04:35:22;100777.31;;;-0.57;100.00
10824;BME280;39116;59.332;18.034;2023-03-21T04:37:45;100781.75;;;-0.69;100.00
10824;BME280;39116;59.332;18.034;2023-03-21T04:40:08;100766.63;;;-1.12;100.00
10824;BME280;39116;59.332;18.034;2023-03-21T04:42:30;100787.91;;;-0.97;100.00
10824;BME280;39116;59.332;18.034;2023-03-21T04:44:52;100787.44;;;-0.90;100.00
10824;BME280;39116;59.332;18.034;2023-03-21T04:47:14;100783.97;;;-0.75;100.00
10824;BME280;39116;59.332;18.034;2023-03-21T04:49:39;100787.34;;;-0.60;100.00
10824;BME280;39116;59.332;18.034;2023-03-21T04:52:03;100794.72;;;-0.66;100.00
10824;BME280;39116;59.332;18.034;2023-03-21T04:54:25;100800.09;;;-0.77;100.00
10824;BME280;39116;59.332;18.034;2023-03-21T04:56:47;100798.25;;;-0.79;100.00
10824;BME280;39116;59.332;18.034;2023-03-21T04:59:11;100803.81;;;-0.71;100.00
10824;BME280;39116;59.332;18.034;2023-03-21T05:01:33;100802.75;;;-0.75;100.00
10824;BME280;39116;59.332;18.034;2023-03-21T05:03:56;100804.38;;;-0.92;100.00
10824;BME280;39116;59.332;18.034;2023-03-21T05:06:17;100800.06;;;-1.08;100.00
10824;BME280;39116;59.332;18.034;2023-03-21T05:08:41;100811.22;;;-0.76;100.00
10824;BME280;39116;59.332;18.034;2023-03-21T05:11:03;100816.66;;;-0.70;100.00
10824;BME280;39116;59.332;18.034;2023-03-21T05:13:25;100809.28;;;-0.80;100.00
10824;BME280;39116;59.332;18.034;2023-03-21T05:15:47;100813.91;;;-0.89;100.00
10824;BME280;39116;59.332;18.034;2023-03-21T05:18:09;100815.03;;;-0.84;100.00
10824;BME280;39116;59.332;18.034;2023-03-21T05:20:31;100802.16;;;-0.86;100.00
10824;BME280;39116;59.332;18.034;2023-03-21T05:22:53;100806.94;;;-0.92;100.00
10824;BME280;39116;59.332;18.034;2023-03-21T05:25:17;100817.44;;;-1.02;100.00
10824;BME280;39116;59.332;18.034;2023-03-21T05:27:54;100821.53;;;-0.74;100.00
10824;BME280;39116;59.332;18.034;2023-03-21T05:30:17;100803.09;;;-1.00;100.00
10824;BME280;39116;59.332;18.034;2023-03-21T05:32:39;100775.31;;;-0.94;100.00
10824;BME280;39116;59.332;18.034;2023-03-21T05:35:01;100811.56;;;-0.85;100.00
10824;BME280;39116;59.332;18.034;2023-03-21T05:37:23;100808.69;;;-0.91;100.00
10824;BME280;39116;59.332;18.034;2023-03-21T05:39:45;100800.28;;;-0.73;100.00
10824;BME280;39116;59.332;18.034;2023-03-21T05:42:09;100797.16;;;-0.99;100.00
10824;BME280;39116;59.332;18.034;2023-03-21T05:44:31;100798.97;;;-0.82;100.00
10824;BME280;39116;59.332;18.034;2023-03-21T05:46:53;100796.59;;;-0.79;100.00
10824;BME280;39116;59.332;18.034;2023-03-21T05:49:14;100795.00;;;-0.77;100.00
10824;BME280;39116;59.332;18.034;2023-03-21T05:51:36;100804.75;;;-0.69;100.00
10824;BME280;39116;59.332;18.034;2023-03-21T05:53:58;100802.91;;;-0.72;100.00
10824;BME280;39116;59.332;18.034;2023-03-21T05:56:20;100804.41;;;-0.75;100.00
10824;BME280;39116;59.332;18.034;2023-03-21T05:58:44;100792.47;;;-0.60;100.00
10824;BME280;39116;59.332;18.034;2023-03-21T06:01:06;100782.06;;;-0.63;100.00
10824;BME280;39116;59.332;18.034;2023-03-21T06:03:28;100800.66;;;-0.34;100.00
10824;BME280;39116;59.332;18.034;2023-03-21T06:05:50;100813.03;;;-0.26;100.00
10824;BME280;39116;59.332;18.034;2023-03-21T06:08:12;100806.81;;;-0.31;100.00
10824;BME280;39116;59.332;18.034;2023-03-21T06:10:34;100808.78;;;-0.42;100.00
10824;BME280;39116;59.332;18.034;2023-03-21T06:12:56;100798.56;;;-0.42;100.00
10824;BME280;39116;59.332;18.034;2023-03-21T06:15:20;100806.97;;;-0.44;100.00
10824;BME280;39116;59.332;18.034;2023-03-21T06:17:41;100810.09;;;-0.17;100.00
10824;BME280;39116;59.332;18.034;2023-03-21T06:20:05;100790.59;;;-0.31;100.00
10824;BME280;39116;59.332;18.034;2023-03-21T06:22:27;100812.25;;;-0.25;100.00
10824;BME280;39116;59.332;18.034;2023-03-21T06:24:49;100810.81;;;-0.03;100.00
10824;BME280;39116;59.332;18.034;2023-03-21T06:27:11;100808.34;;;-0.02;100.00
10824;BME280;39116;59.332;18.034;2023-03-21T06:29:33;100806.25;;;0.08;100.00
10824;BME280;39116;59.332;18.034;2023-03-21T06:31:57;100807.59;;;0.17;100.00
10824;BME280;39116;59.332;18.034;2023-03-21T06:34:19;100796.88;;;0.25;100.00
10824;BME280;39116;59.332;18.034;2023-03-21T06:36:41;100798.31;;;0.36;100.00
10824;BME280;39116;59.332;18.034;2023-03-21T06:39:04;100803.44;;;0.36;100.00
10824;BME280;39116;59.332;18.034;2023-03-21T06:41:26;100801.81;;;0.38;100.00
10824;BME280;39116;59.332;18.034;2023-03-21T06:43:48;100790.91;;;0.08;100.00
10824;BME280;39116;59.332;18.034;2023-03-21T06:46:10;100787.38;;;-0.11;100.00
10824;BME280;39116;59.332;18.034;2023-03-21T06:48:34;100793.75;;;0.14;100.00
10824;BME280;39116;59.332;18.034;2023-03-21T06:50:57;100796.78;;;0.23;100.00
10824;BME280;39116;59.332;18.034;2023-03-21T06:53:20;100800.72;;;0.16;100.00
10824;BME280;39116;59.332;18.034;2023-03-21T06:55:48;100795.50;;;0.31;100.00
10824;BME280;39116;59.332;18.034;2023-03-21T06:58:10;100799.63;;;0.11;100.00
10824;BME280;39116;59.332;18.034;2023-03-21T07:00:32;100808.44;;;0.00;100.00
10824;BME280;39116;59.332;18.034;2023-03-21T07:02:54;100803.31;;;0.00;100.00
10824;BME280;39116;59.332;18.034;2023-03-21T07:05:17;100810.31;;;0.21;100.00
10824;BME280;39116;59.332;18.034;2023-03-21T07:07:40;100806.56;;;0.14;100.00
10824;BME280;39116;59.332;18.034;2023-03-21T07:10:02;100811.66;;;0.30;100.00
10824;BME280;39116;59.332;18.034;2023-03-21T07:12:24;100808.50;;;0.18;100.00
10824;BME280;39116;59.332;18.034;2023-03-21T07:14:46;100800.00;;;0.19;100.00
10824;BME280;39116;59.332;18.034;2023-03-21T07:17:08;100806.63;;;0.15;100.00
10824;BME280;39116;59.332;18.034;2023-03-21T07:19:30;100812.63;;;0.32;100.00
10824;BME280;39116;59.332;18.034;2023-03-21T07:21:53;100773.75;;;0.23;100.00
10824;BME280;39116;59.332;18.034;2023-03-21T07:24:15;100801.72;;;0.36;100.00
10824;BME280;39116;59.332;18.034;2023-03-21T07:26:37;100790.72;;;0.21;100.00
10824;BME280;39116;59.332;18.034;2023-03-21T07:28:59;100808.22;;;0.30;100.00
10824;BME280;39116;59.332;18.034;2023-03-21T07:31:21;100803.38;;;0.18;100.00
10824;BME280;39116;59.332;18.034;2023-03-21T07:33:45;100804.63;;;0.61;100.00
10824;BME280;39116;59.332;18.034;2023-03-21T07:36:09;100708.31;;;-0.23;100.00
10824;BME280;39116;59.332;18.034;2023-03-21T07:38:33;100815.41;;;0.37;100.00
10824;BME280;39116;59.332;18.034;2023-03-21T07:40:57;100818.22;;;0.42;100.00
10824;BME280;39116;59.332;18.034;2023-03-21T07:43:20;100821.06;;;0.48;100.00
10824;BME280;39116;59.332;18.034;2023-03-21T07:45:42;100818.53;;;0.66;100.00
10824;BME280;39116;59.332;18.034;2023-03-21T07:48:04;100771.41;;;0.28;100.00
10824;BME280;39116;59.332;18.034;2023-03-21T07:50:26;100815.66;;;0.42;100.00
10824;BME280;39116;59.332;18.034;2023-03-21T07:52:48;100828.66;;;0.46;100.00
10824;BME280;39116;59.332;18.034;2023-03-21T07:55:11;100826.03;;;0.45;100.00
10824;BME280;39116;59.332;18.034;2023-03-21T07:57:33;100824.53;;;0.66;100.00
10824;BME280;39116;59.332;18.034;2023-03-21T07:59:56;100697.22;;;-0.40;100.00
10824;BME280;39116;59.332;18.034;2023-03-21T08:02:18;100825.25;;;0.46;100.00
10824;BME280;39116;59.332;18.034;2023-03-21T08:04:40;100828.47;;;0.42;100.00
10824;BME280;39116;59.332;18.034;2023-03-21T08:07:02;100831.25;;;0.64;100.00
10824;BME280;39116;59.332;18.034;2023-03-21T08:09:23;100826.59;;;0.73;100.00
10824;BME280;39116;59.332;18.034;2023-03-21T08:11:47;100787.38;;;0.92;100.00
10824;BME280;39116;59.332;18.034;2023-03-21T08:14:09;100816.75;;;0.81;100.00
10824;BME280;39116;59.332;18.034;2023-03-21T08:16:31;100831.44;;;0.85;100.00
10824;BME280;39116;59.332;18.034;2023-03-21T08:18:53;100832.63;;;1.28;100.00
10824;BME280;39116;59.332;18.034;2023-03-21T08:21:14;100807.38;;;1.00;100.00
10824;BME280;39116;59.332;18.034;2023-03-21T08:23:36;100816.94;;;1.04;100.00
10824;BME280;39116;59.332;18.034;2023-03-21T08:25:58;100822.81;;;1.19;100.00
10824;BME280;39116;59.332;18.034;2023-03-21T08:28:22;100824.00;;;0.90;100.00
10824;BME280;39116;59.332;18.034;2023-03-21T08:30:45;100830.34;;;0.98;100.00
10824;BME280;39116;59.332;18.034;2023-03-21T08:33:07;100830.06;;;1.10;100.00
10824;BME280;39116;59.332;18.034;2023-03-21T08:35:29;100821.63;;;1.12;100.00
10824;BME280;39116;59.332;18.034;2023-03-21T08:37:51;100828.16;;;1.06;100.00
10824;BME280;39116;59.332;18.034;2023-03-21T08:40:15;100829.56;;;0.99;100.00
10824;BME280;39116;59.332;18.034;2023-03-21T08:42:37;100831.69;;;1.26;100.00
10824;BME280;39116;59.332;18.034;2023-03-21T08:45:01;100827.50;;;1.28;100.00
10824;BME280;39116;59.332;18.034;2023-03-21T08:47:23;100822.94;;;1.40;100.00
10824;BME280;39116;59.332;18.034;2023-03-21T08:49:46;100815.28;;;1.42;100.00
10824;BME280;39116;59.332;18.034;2023-03-21T08:52:08;100822.91;;;1.58;100.00
10824;BME280;39116;59.332;18.034;2023-03-21T08:54:30;100826.16;;;1.36;100.00
10824;BME280;39116;59.332;18.034;2023-03-21T08:56:52;100812.00;;;1.44;100.00
10824;BME280;39116;59.332;18.034;2023-03-21T08:59:14;100815.56;;;1.66;100.00
10824;BME280;39116;59.332;18.034;2023-03-21T09:01:37;100806.91;;;1.64;100.00
10824;BME280;39116;59.332;18.034;2023-03-21T09:04:00;100827.31;;;1.80;100.00
10824;BME280;39116;59.332;18.034;2023-03-21T09:06:22;100807.03;;;1.86;100.00
10824;BME280;39116;59.332;18.034;2023-03-21T09:08:44;100800.81;;;2.01;100.00
10824;BME280;39116;59.332;18.034;2023-03-21T09:11:06;100807.88;;;2.05;100.00
10824;BME280;39116;59.332;18.034;2023-03-21T09:13:28;100805.56;;;2.11;100.00
10824;BME280;39116;59.332;18.034;2023-03-21T09:15:50;100795.56;;;2.17;100.00
10824;BME280;39116;59.332;18.034;2023-03-21T09:18:14;100804.84;;;2.14;100.00
10824;BME280;39116;59.332;18.034;2023-03-21T09:20:38;100801.09;;;2.26;100.00
10824;BME280;39116;59.332;18.034;2023-03-21T09:23:00;100794.72;;;2.38;100.00
10824;BME280;39116;59.332;18.034;2023-03-21T09:25:22;100787.69;;;2.55;100.00
10824;BME280;39116;59.332;18.034;2023-03-21T09:27:44;100791.47;;;2.63;100.00
10824;BME280;39116;59.332;18.034;2023-03-21T09:30:08;100763.81;;;2.57;100.00
10824;BME280;39116;59.332;18.034;2023-03-21T09:32:30;100796.97;;;2.93;100.00
10824;BME280;39116;59.332;18.034;2023-03-21T09:34:54;100795.47;;;2.98;100.00
10824;BME280;39116;59.332;18.034;2023-03-21T09:37:17;100796.31;;;3.20;100.00
10824;BME280;39116;59.332;18.034;2023-03-21T09:39:40;100801.03;;;3.32;100.00
10824;BME280;39116;59.332;18.034;2023-03-21T09:42:15;100755.22;;;3.23;100.00
10824;BME280;39116;59.332;18.034;2023-03-21T09:44:47;100784.94;;;3.37;100.00
10824;BME280;39116;59.332;18.034;2023-03-21T09:47:16;100787.19;;;3.51;100.00
10824;BME280;39116;59.332;18.034;2023-03-21T09:49:43;100769.72;;;3.66;100.00
10824;BME280;39116;59.332;18.034;2023-03-21T09:52:16;100768.63;;;3.83;100.00
10824;BME280;39116;59.332;18.034;2023-03-21T09:54:41;100764.31;;;3.82;100.00
10824;BME280;39116;59.332;18.034;2023-03-21T09:57:11;100779.22;;;3.91;100.00
10824;BME280;39116;59.332;18.034;2023-03-21T09:59:39;100781.06;;;3.95;100.00
10824;BME280;39116;59.332;18.034;2023-03-21T10:02:03;100780.50;;;3.80;100.00
10824;BME280;39116;59.332;18.034;2023-03-21T10:04:31;100756.88;;;3.66;100.00
10824;BME280;39116;59.332;18.034;2023-03-21T10:06:58;100772.97;;;3.85;100.00
10824;BME280;39116;59.332;18.034;2023-03-21T10:09:23;100767.50;;;3.75;100.00
10824;BME280;39116;59.332;18.034;2023-03-21T10:11:50;100776.34;;;3.83;100.00
10824;BME280;39116;59.332;18.034;2023-03-21T10:14:18;100778.69;;;4.01;100.00
10824;BME280;39116;59.332;18.034;2023-03-21T10:16:43;100777.00;;;3.78;100.00
10824;BME280;39116;59.332;18.034;2023-03-21T10:19:10;100768.09;;;4.18;100.00
10824;BME280;39116;59.332;18.034;2023-03-21T10:21:32;100780.84;;;4.13;100.00
10824;BME280;39116;59.332;18.034;2023-03-21T10:23:56;100764.28;;;4.31;100.00
10824;BME280;39116;59.332;18.034;2023-03-21T10:26:21;100757.03;;;4.20;100.00
10824;BME280;39116;59.332;18.034;2023-03-21T10:28:44;100760.97;;;4.11;100.00
10824;BME280;39116;59.332;18.034;2023-03-21T10:31:08;100760.34;;;4.16;100.00
10824;BME280;39116;59.332;18.034;2023-03-21T10:33:33;100752.59;;;4.42;100.00
10824;BME280;39116;59.332;18.034;2023-03-21T10:35:59;100752.66;;;4.44;100.00
10824;BME280;39116;59.332;18.034;2023-03-21T10:38:24;100766.59;;;4.49;100.00
10824;BME280;39116;59.332;18.034;2023-03-21T10:40:46;100748.03;;;4.61;100.00
10824;BME280;39116;59.332;18.034;2023-03-21T10:43:31;100748.66;;;4.53;100.00
10824;BME280;39116;59.332;18.034;2023-03-21T10:45:55;100747.91;;;4.56;100.00
10824;BME280;39116;59.332;18.034;2023-03-21T10:48:17;100746.94;;;4.52;100.00
10824;BME280;39116;59.332;18.034;2023-03-21T10:50:40;100749.41;;;4.49;100.00
10824;BME280;39116;59.332;18.034;2023-03-21T10:53:13;100740.19;;;4.57;100.00
10824;BME280;39116;59.332;18.034;2023-03-21T10:55:39;100751.47;;;4.59;100.00
10824;BME280;39116;59.332;18.034;2023-03-21T10:58:03;100747.47;;;4.69;100.00
10824;BME280;39116;59.332;18.034;2023-03-21T11:00:34;100739.91;;;4.75;100.00
10824;BME280;39116;59.332;18.034;2023-03-21T11:02:58;100739.69;;;4.68;100.00
10824;BME280;39116;59.332;18.034;2023-03-21T11:05:23;100739.22;;;4.80;100.00
10824;BME280;39116;59.332;18.034;2023-03-21T11:07:46;100733.53;;;4.91;100.00
10824;BME280;39116;59.332;18.034;2023-03-21T11:10:13;100718.25;;;4.97;100.00
10824;BME280;39116;59.332;18.034;2023-03-21T11:12:37;100727.94;;;5.05;100.00
10824;BME280;39116;59.332;18.034;2023-03-21T11:15:24;100726.06;;;4.99;100.00
10824;BME280;39116;59.332;18.034;2023-03-21T11:17:48;100718.53;;;5.07;100.00
10824;BME280;39116;59.332;18.034;2023-03-21T11:20:15;100707.28;;;5.05;100.00
10824;BME280;39116;59.332;18.034;2023-03-21T11:22:40;100721.16;;;5.08;100.00
10824;BME280;39116;59.332;18.034;2023-03-21T11:25:08;100707.78;;;5.22;100.00
10824;BME280;39116;59.332;18.034;2023-03-21T11:27:31;100592.81;;;4.42;100.00
10824;BME280;39116;59.332;18.034;2023-03-21T11:29:55;100708.34;;;5.42;100.00
10824;BME280;39116;59.332;18.034;2023-03-21T11:32:23;100707.44;;;5.40;100.00
10824;BME280;39116;59.332;18.034;2023-03-21T11:34:49;100708.34;;;5.40;100.00
10824;BME280;39116;59.332;18.034;2023-03-21T11:37:19;100708.63;;;5.51;100.00
10824;BME280;39116;59.332;18.034;2023-03-21T11:39:43;100710.22;;;5.46;100.00
10824;BME280;39116;59.332;18.034;2023-03-21T11:42:25;100700.91;;;5.51;100.00
10824;BME280;39116;59.332;18.034;2023-03-21T11:44:48;100701.06;;;5.57;100.00
10824;BME280;39116;59.332;18.034;2023-03-21T11:47:17;100700.34;;;5.63;100.00
10824;BME280;39116;59.332;18.034;2023-03-21T11:49:40;100679.69;;;5.32;100.00
10824;BME280;39116;59.332;18.034;2023-03-21T11:52:22;100702.88;;;5.31;100.00
10824;BME280;39116;59.332;18.034;2023-03-21T11:55:00;100705.44;;;5.29;100.00
10824;BME280;39116;59.332;18.034;2023-03-21T11:57:28;100703.28;;;5.14;100.00
10824;BME280;39116;59.332;18.034;2023-03-21T11:59:58;100696.75;;;5.27;100.00
10824;BME280;39116;59.332;18.034;2023-03-21T12:02:38;100692.28;;;5.22;100.00
10824;BME280;39116;59.332;18.034;2023-03-21T12:05:17;100695.63;;;5.48;100.00
10824;BME280;39116;59.332;18.034;2023-03-21T12:07:51;100690.56;;;5.51;100.00
10824;BME280;39116;59.332;18.034;2023-03-21T12:10:31;100683.78;;;5.54;100.00
10824;BME280;39116;59.332;18.034;2023-03-21T12:13:03;100691.44;;;5.85;100.00
10824;BME280;39116;59.332;18.034;2023-03-21T12:15:35;100693.94;;;6.14;100.00
10824;BME280;39116;59.332;18.034;2023-03-21T12:18:04;100688.72;;;6.10;100.00
10824;BME280;39116;59.332;18.034;2023-03-21T12:20:38;100690.22;;;6.02;100.00
10824;BME280;39116;59.332;18.034;2023-03-21T12:23:18;100679.25;;;6.11;100.00
10824;BME280;39116;59.332;18.034;2023-03-21T12:25:47;100675.03;;;6.15;100.00
10824;BME280;39116;59.332;18.034;2023-03-21T12:28:22;100679.91;;;6.37;100.00
10824;BME280;39116;59.332;18.034;2023-03-21T12:30:52;100679.72;;;6.66;100.00
10824;BME280;39116;59.332;18.034;2023-03-21T12:33:27;100682.22;;;6.26;100.00
10824;BME280;39116;59.332;18.034;2023-03-21T12:36:09;100680.00;;;6.42;100.00